colorkinetics.com alexa rank chart, colorkinetics.com alexa rank daily changes

colorkinetics.com alexa rank chart, colorkinetics.com alexa rank daily changes

colorkinetics.com
Actual rank:
261 501

RANK HISTORY

Date Rank Diff
2017/04/28 261 501 -4 511
2017/04/27 266 012 -103
2017/04/26 266 115 +4 547
2017/04/25 261 568 -451
2017/04/24 262 019 +3 310
2017/04/23 258 709 +2 284
2017/04/22 256 425 -157
2017/04/21 256 582 -5 237
2017/04/20 261 819 -5 441
2017/04/19 267 260 +72
2017/04/18 267 188 +4 596
2017/04/17 262 592 -1 477
2017/04/16 264 069 -2 910
2017/04/15 266 979 -5 843
2017/04/14 272 822 -5 007
2017/04/13 277 829 -7 376
2017/04/12 285 205 -798
2017/04/11 286 003 +4 387
2017/04/10 281 616 +6 030
2017/04/09 275 586 -12 014
2017/04/08 287 600 +10 667
2017/04/07 276 933 -7 361
2017/04/06 284 294 +4 781
2017/04/05 279 513 -4 429
2017/04/04 283 942 +6 144
2017/04/03 277 798 +16 545
2017/04/02 261 253 -7 401
2017/04/01 268 654 +3 660
2017/03/31 264 994 -1 661
2017/03/30 266 655 -603
2017/03/29 267 258 +2 135
2017/03/28 265 123 +6 886
2017/03/27 258 237 -3 822
2017/03/26 262 059 -5 546
2017/03/25 267 605 +5 426
2017/03/24 262 179 -1 211
2017/03/23 263 390 -3 800
2017/03/22 267 190 -2 756
2017/03/21 269 946 -1 829
2017/03/20 271 775 -4 814
2017/03/19 276 589 -2 679
2017/03/18 279 268 +1 354
2017/03/17 277 914 +1 449
2017/03/16 276 465 -2 989
2017/03/15 279 454 -8 641
2017/03/14 288 095 +1 922
2017/03/13 286 173 -2 043
2017/03/12 288 216 -11 892
2017/03/11 300 108 -4 050
2017/03/10 304 158 -6 774
2017/03/09 310 932 -6 560
2017/03/08 317 492 +8 564
2017/03/07 308 928 -10 469
2017/03/06 319 397 +5 322
2017/03/01 314 075 +18 610
2017/02/28 295 465 +4 496
2017/02/27 290 969

WIDGET FOR YOUR SITE

DOMAINS WITH THE NEAREST RANK

Domain Rank
yslw.jp 261 496
insurethebox.com 261 497
wclan.ru 261 498
ragequit.gr 261 499
sarita.in 261 500
colorkinetics.com 261 501
nashcountrydaily.com 261 502
skullsunlimited.com 261 503
studentshelp.de 261 504
secupay.ag 261 505
littlecaesars.ca 261 506

DOMAINS WITH THE NEAREST RANK BY TLD .com

Domain Rank
morganmckinley.com 261 490
tallinksilja.com 261 491
wpexplorer-demos.com 261 493
tulipsport.com 261 495
insurethebox.com 261 497
colorkinetics.com 261 501
nashcountrydaily.com 261 502
skullsunlimited.com 261 503
harting.com 261 509
bizreport.com 261 512
efemeridesvenezolanas.com 261 513